Glenwood Springs, Colorado
Current Conditions -  °F | °C
As of 9:53 PM on Tuesday 25 Nov 2014 (Local Time) from KRIL Reporting Station
Overcast Overcast  
Wind Chill: 28°   Ceiling: 7000
Heat Index: 28°   Visibility: 10mi
Dew Point: 22°   Wind: 3mph
Humidity: 78%   Direction: 100°E
Pressure: 30.3"   Gusts: NA
Location:  39.55°N, 107.32°W
Report Text: KRIL 260453Z AUTO 10003KT 10SM OVC070 M02/M06 A3030 RMK AO2 SLP298 T10221056
Loading
Personal Weather Stations






























Interactive Weather Map New forecast layout! Learn more

10-Day Weather Forecast

Advertisements
Track Severe Weather on mobile